Historyczne dane pomiarowe

Dodano dane terminowe – wersja testowa.

Dane z okresu 1951-2019

Wersja bazy: 1.34 [2019-03-16, lista zmian], aktualizacja planowana na 2019-04-15

Dane meteo z obszaru Polski uzyskane na podstawie danych udostępnionych przez Instytut Meteorologii i Gospodarki Wodnej – Państwowy Instytut Badawczy.

 

Wybierz Datę:    

       

TemperaturaWilgotnośćWiatrCiśnienieOpadyŚniegCzas trwania zjawisk
 Stacja t tx tn tng RH VA  wxwx mslp ppp RRR   cm mm wxwxwxwxwxwxwx
1994-08-14 13.9 18.0 11.0 8.6 86.0- 6.3 10.7---- 2.0------------
1994-08-13 17.1 23.4 13.6 14.3 91.3- 8.0 11.7---- 1.3------------
1994-08-12 20.3 25.7 16.2 15.3 83.5- 6.7 2.0---- 0.0------------
1994-08-11 21.1 25.5 15.8 11.5 73.3- 6.3 4.0---- 0.0------------
1994-08-10 21.0 27.4 13.1 9.8 77.5- 3.3 1.3---- 0.0------------
1994-08-09 20.7 26.0 17.9 15.4 89.3- 6.0 1.7---- 0.8------------
1994-08-08 21.9 26.6 18.2 16.8 83.3- 5.0 2.3---- 0.0------------
1994-08-07 22.4 28.2 18.2 15.3 79.5- 2.7 2.3---- 0.9------------
1994-08-06 25.9 32.9 16.1 14.3 69.5- 3.0 7.3---- 0.0------------
1994-08-05 26.2 33.0 15.7 13.0 68.3- 0.7 0.3---- 0.0------------
1994-08-04 23.1 29.5 15.6 11.6 78.5- 0.7 2.3---- 0.0------------
1994-08-03 24.6 29.5 21.6 19.5 80.8- 4.0 5.7---- 0.0------------
1994-08-02 27.1 35.2 18.7 14.5 67.3- 2.7 5.0---- 0.0------------
1994-08-01 27.8 36.2 18.8 15.2 70.3- 2.0 4.7---- 0.0------------
1994-07-31 28.5 36.5 18.3 17.3 64.0- 2.7 2.0---- 0.0------------
1994-07-30 28.6 36.0 17.3 15.7 55.0- 0.7 3.0---- 0.0------------
1994-07-29 28.1 35.7 17.8 13.7 67.0- 1.0 0.7---- 0.0------------
1994-07-28 27.4 36.0 17.8 16.6 61.5- 1.3 1.0---- 0.0------------
1994-07-27 27.1 35.5 16.2 12.8 59.5- 1.0 0.7---- 0.0------------
1994-07-26 26.4 34.3 13.8 10.8 60.8- 0.3 1.7---- 0.0------------
1994-07-25 26.2 32.8 14.2 8.6 58.8- 0.7 0.7---- 0.0------------
1994-07-24 23.8 31.3 12.6 9.8 63.8- 0.7 1.7---- 0.0------------
1994-07-23 23.1 30.5 12.1 8.3 68.8- 1.3 2.0---- 0.0------------
1994-07-22 21.4 28.5 11.4 8.3 68.3- 0.7 3.0---- 0.0------------
1994-07-21 21.1 29.7 8.9 5.9 66.3- 0.0 2.0---- 0.0------------
1994-07-20 19.4 26.0 8.5 5.4 72.5- 0.0 7.0---- 0.0------------
1994-07-19 18.4 24.0 9.9 6.8 69.5- 0.7 6.0---- 0.0------------
1994-07-18 20.0 25.0 14.2 11.8 74.5- 1.0 4.7---- 0.0------------
1994-07-17 22.2 27.2 17.5 15.3 80.8- 2.3 3.0---- 0.6------------
1994-07-16 23.0 28.6 18.3 15.8 86.8- 4.3 3.0---- 0.0------------
1994-07-15 25.8 31.5 19.0 14.8 76.0- 2.7 1.7---- 0.0------------
1994-07-14 25.0 32.0 16.2 12.8 74.8- 3.7 3.3---- 0.0------------
1994-07-13 24.3 30.6 16.4 12.3 72.3- 0.7 4.7---- 0.0------------
1994-07-12 23.0 29.2 13.6 11.3 75.3- 0.3 3.3---- 0.0------------
1994-07-11 21.9 29.0 12.1 8.8 72.3- 0.7 8.0---- 0.0------------
1994-07-10 19.2 27.0 12.1 9.8 84.0- 1.0 5.0---- 0.0------------
1994-07-09 15.9 21.2 12.5 10.4 89.5- 5.7 6.3---- 0.0------------
1994-07-08 14.9 23.4 13.6 13.4 99.3- 7.3 5.7---- 8.7------------
1994-07-07 19.4 25.6 8.9 5.8 69.3- 3.3 2.0---- 10.0------------
1994-07-06 18.9 25.0 12.1 9.7 75.8- 1.3 2.3---- 0.0------------
1994-07-05 18.9 25.5 11.8 9.2 72.0- 2.0 2.0---- 0.0------------
1994-07-04 20.5 26.7 13.6 8.8 67.3- 0.7 2.3---- 0.0------------
1994-07-03 19.4 25.6 11.0 5.3 59.0- 0.3 2.0---- 0.0------------
1994-07-02 17.4 23.7 7.0 4.9 69.5- 0.0 1.3---- 0.0------------
1994-07-01 17.0 22.5 9.8 8.3 82.5- 1.3 3.0---- 0.0------------
1994-06-30 19.8 28.5 18.8 15.6 84.5- 3.7 6.7---- 0.0------------
1994-06-29 25.3 31.1 15.7 11.2 80.5- 0.3 1.7---- 1.6------------
1994-06-28 22.1 28.2 13.1 8.6 75.5- 0.0 1.0---- 0.0------------
1994-06-27 22.4 27.9 15.2 10.6 87.0- 1.7 2.0---- 0.0------------
1994-06-26 21.7 30.0 10.5 3.2 76.8- 0.7 2.7---- 0.0------------
1994-06-25 16.5 23.0 5.6 -0.8 73.8- 0.0 1.3---- 0.0------------
1994-06-24 13.9 18.6 8.0 3.9 81.5- 2.0 6.7---- 0.0------------
1994-06-23 15.5 20.6 11.8 6.6 71.5- 2.7 11.3---- 0.0------------
1994-06-22 19.2 24.4 15.2 8.1 80.5- 5.7 9.3---- 0.1------------
1994-06-21 15.6 21.9 7.0 1.1 79.3- 1.3 2.7---- 0.0------------
1994-06-20 15.4 18.3 12.7 9.1 81.8- 4.0 8.3---- 0.0------------
1994-06-19 14.8 20.0 11.6 9.0 95.8- 7.3 4.3---- 0.7------------
1994-06-18 12.2 17.0 5.5 -0.5 89.8- 5.7 3.3---- 7.8------------
1994-06-17 11.1 14.7 7.5 3.2 81.5- 3.0 5.7---- 0.0------------
1994-06-16 11.6 15.4 9.9 5.1 91.5- 5.7 5.7---- 2.2------------
275.0 ms

 

Źródłem pochodzenia danych jest Instytut Meteorologii i Gospodarki Wodnej – Państwowy Instytut Badawczy. Dane Instytutu Meteorologii i Gospodarki Wodnej – Państwowego Instytutu Badawczego zostały przetworzone.

Dane źródłowe można odnaleźć na stronie https://dane.imgw.pl